createdAt,value
2023-09-23T00:01:11.978Z,11.32
2023-09-23T00:03:38.760Z,11.27
2023-09-23T00:06:05.962Z,11.23
2023-09-23T00:08:32.762Z,11.16
2023-09-23T00:10:59.270Z,11.18
2023-09-23T00:13:26.305Z,11.21
2023-09-23T00:15:53.758Z,11.21
2023-09-23T00:18:20.432Z,11.25
2023-09-23T00:20:47.767Z,11.31
2023-09-23T00:23:15.168Z,11.32
2023-09-23T00:25:42.183Z,11.35
2023-09-23T00:28:12.442Z,11.34
2023-09-23T00:30:39.849Z,11.34
2023-09-23T00:33:07.254Z,11.32
2023-09-23T00:35:37.565Z,11.36
2023-09-23T00:38:05.565Z,11.36
2023-09-23T00:40:33.981Z,11.36
2023-09-23T00:43:07.920Z,11.32
2023-09-23T00:45:35.387Z,11.30
2023-09-23T00:48:02.633Z,11.33
2023-09-23T00:50:30.773Z,11.35
2023-09-23T00:52:58.216Z,11.39
2023-09-23T00:55:27.623Z,11.38
2023-09-23T00:57:54.454Z,11.41
2023-09-23T01:00:28.472Z,11.42
2023-09-23T01:02:59.360Z,11.40
2023-09-23T01:05:31.294Z,11.40
2023-09-23T01:08:12.799Z,11.40
2023-09-23T01:10:40.419Z,11.36
2023-09-23T01:13:17.426Z,11.28
2023-09-23T01:15:44.437Z,11.23
2023-09-23T01:18:14.627Z,11.19
2023-09-23T01:20:44.243Z,11.12
2023-09-23T01:23:11.931Z,11.09
2023-09-23T01:25:39.048Z,11.05
2023-09-23T01:28:12.438Z,11.00
2023-09-23T01:30:41.615Z,10.96
2023-09-23T01:33:10.179Z,10.94
2023-09-23T01:35:37.735Z,10.92
2023-09-23T01:38:05.062Z,10.92
2023-09-23T01:40:32.787Z,10.94
2023-09-23T01:42:59.435Z,10.98
2023-09-23T01:45:29.752Z,10.96
2023-09-23T01:47:58.308Z,10.97
2023-09-23T01:50:25.906Z,10.98
2023-09-23T01:52:52.840Z,10.97
2023-09-23T01:55:19.646Z,10.97
2023-09-23T01:57:49.466Z,10.95
2023-09-23T02:00:19.485Z,10.92
2023-09-23T02:02:46.600Z,10.89
2023-09-23T02:05:13.450Z,10.87
2023-09-23T02:07:41.260Z,10.83
2023-09-23T02:10:12.529Z,10.80
2023-09-23T02:12:39.004Z,10.79
2023-09-23T02:15:07.457Z,10.77
2023-09-23T02:17:37.335Z,10.74
2023-09-23T02:20:25.201Z,10.73
2023-09-23T02:22:56.535Z,10.72
2023-09-23T02:25:27.029Z,10.71
2023-09-23T02:27:56.075Z,10.71
2023-09-23T02:30:23.197Z,10.68
2023-09-23T02:32:49.940Z,10.65
2023-09-23T02:35:17.672Z,10.63
2023-09-23T02:37:46.504Z,10.61
2023-09-23T02:40:16.507Z,10.59
2023-09-23T02:42:46.675Z,10.58
2023-09-23T02:45:15.173Z,10.56
2023-09-23T02:47:46.243Z,10.57
2023-09-23T02:50:15.074Z,10.58
2023-09-23T02:52:43.333Z,10.62
2023-09-23T02:55:16.024Z,10.67
2023-09-23T02:57:49.864Z,10.68
2023-09-23T03:00:31.348Z,10.70
2023-09-23T03:03:00.511Z,10.71
2023-09-23T03:05:33.140Z,10.72
2023-09-23T03:08:01.815Z,10.72
2023-09-23T03:10:40.826Z,10.74
2023-09-23T03:13:08.623Z,10.73
2023-09-23T03:15:45.973Z,10.75
2023-09-23T03:18:16.447Z,10.73
2023-09-23T03:20:43.556Z,10.67
2023-09-23T03:23:13.666Z,10.63
2023-09-23T03:25:47.850Z,10.60
2023-09-23T03:28:18.376Z,10.55
2023-09-23T03:30:49.617Z,10.52
2023-09-23T03:33:21.569Z,10.50
2023-09-23T03:35:48.697Z,10.49
2023-09-23T03:38:16.607Z,10.48
2023-09-23T03:40:54.078Z,10.46
2023-09-23T03:43:22.052Z,10.43
2023-09-23T03:45:49.013Z,10.43
2023-09-23T03:48:16.692Z,10.42
2023-09-23T03:50:43.618Z,10.42
2023-09-23T03:53:12.943Z,10.38
2023-09-23T03:55:40.148Z,10.35
2023-09-23T03:58:07.258Z,10.33
2023-09-23T04:00:37.720Z,10.32
2023-09-23T04:03:04.623Z,10.31
2023-09-23T04:05:32.838Z,10.31
2023-09-23T04:07:59.725Z,10.34
2023-09-23T04:10:27.988Z,10.33
2023-09-23T04:12:57.986Z,10.32
2023-09-23T04:15:25.845Z,10.31
2023-09-23T04:17:53.266Z,10.30
2023-09-23T04:20:19.987Z,10.29
2023-09-23T04:22:49.976Z,10.26
2023-09-23T04:25:16.633Z,10.23
2023-09-23T04:27:43.352Z,10.22
2023-09-23T04:30:12.883Z,10.20
2023-09-23T04:32:41.666Z,10.17
2023-09-23T04:35:14.099Z,10.16
2023-09-23T04:37:41.151Z,10.13
2023-09-23T04:40:12.626Z,10.11
2023-09-23T04:42:40.921Z,10.09
2023-09-23T04:45:09.284Z,10.07
2023-09-23T04:47:36.836Z,10.07
2023-09-23T04:50:06.701Z,10.06
2023-09-23T04:52:33.405Z,10.04
2023-09-23T04:55:00.932Z,10.05
2023-09-23T04:57:30.859Z,10.06
2023-09-23T04:59:58.928Z,10.04
2023-09-23T05:02:27.621Z,10.05
2023-09-23T05:04:55.260Z,10.04
2023-09-23T05:07:22.808Z,10.03
2023-09-23T05:09:50.601Z,10.04
2023-09-23T05:12:17.639Z,10.05
2023-09-23T05:14:44.539Z,10.08
2023-09-23T05:17:16.006Z,10.11
2023-09-23T05:19:43.774Z,10.14
2023-09-23T05:22:18.326Z,10.17
2023-09-23T05:24:54.590Z,10.22
2023-09-23T05:27:31.042Z,10.25
2023-09-23T05:29:59.290Z,10.29
2023-09-23T05:33:43.184Z,10.31
2023-09-23T05:36:14.903Z,10.31
2023-09-23T05:39:11.525Z,10.33
2023-09-23T05:41:44.101Z,10.35
2023-09-23T05:44:14.320Z,10.34
2023-09-23T05:46:47.764Z,10.39
2023-09-23T05:49:17.971Z,10.42
2023-09-23T05:51:46.938Z,10.48
2023-09-23T05:54:24.389Z,10.50
2023-09-23T05:56:51.576Z,10.52
2023-09-23T05:59:26.848Z,10.56
2023-09-23T06:01:56.084Z,10.57
2023-09-23T06:04:23.918Z,10.59
2023-09-23T06:06:51.907Z,10.63
2023-09-23T06:09:19.991Z,10.68
2023-09-23T06:11:47.179Z,10.73
2023-09-23T06:14:15.914Z,10.77
2023-09-23T06:17:09.209Z,10.80
2023-09-23T06:19:36.358Z,10.82
2023-09-23T06:22:03.702Z,10.89
2023-09-23T06:24:32.369Z,10.94
2023-09-23T06:27:36.832Z,10.99
2023-09-23T06:33:00.696Z,11.13
2023-09-23T06:35:30.806Z,11.15
2023-09-23T06:37:59.397Z,11.18
2023-09-23T06:40:27.259Z,11.21
2023-09-23T06:42:54.982Z,11.27
2023-09-23T06:46:14.757Z,11.31
2023-09-23T06:48:52.168Z,11.42
2023-09-23T06:51:18.628Z,11.46
2023-09-23T06:53:46.954Z,11.51
2023-09-23T06:56:13.946Z,11.62
2023-09-23T06:58:41.037Z,11.73
2023-09-23T07:01:07.533Z,11.80
2023-09-23T07:03:34.113Z,11.82
2023-09-23T07:06:00.839Z,11.82
2023-09-23T07:08:27.526Z,11.83
2023-09-23T07:10:56.276Z,11.97
2023-09-23T07:13:22.854Z,12.04
2023-09-23T07:15:49.331Z,12.00
2023-09-23T07:18:15.934Z,11.92
2023-09-23T07:20:43.983Z,11.94
2023-09-23T07:23:10.583Z,12.22
2023-09-23T07:25:41.642Z,12.54
2023-09-23T07:28:08.723Z,12.75
2023-09-23T07:30:36.815Z,12.58
2023-09-23T07:33:03.949Z,12.73
2023-09-23T07:35:34.374Z,12.85
2023-09-23T07:38:02.009Z,12.87
2023-09-23T07:40:29.954Z,12.99
2023-09-23T07:42:57.107Z,13.01
2023-09-23T07:45:23.777Z,13.22
2023-09-23T07:47:50.431Z,13.49
2023-09-23T07:50:17.480Z,13.47
2023-09-23T07:52:44.203Z,13.34
2023-09-23T07:55:12.026Z,13.15
2023-09-23T07:57:38.632Z,13.00
2023-09-23T08:00:06.254Z,12.92
2023-09-23T08:02:33.365Z,12.83
2023-09-23T08:05:00.185Z,12.80
2023-09-23T08:07:27.270Z,12.83
2023-09-23T08:09:53.895Z,13.00
2023-09-23T08:12:20.441Z,13.15
2023-09-23T08:14:46.942Z,13.28
2023-09-23T08:17:16.018Z,13.49
2023-09-23T08:19:42.677Z,13.64
2023-09-23T08:22:09.248Z,13.88
2023-09-23T08:24:35.744Z,14.19
2023-09-23T08:27:04.646Z,14.45
2023-09-23T08:29:31.702Z,14.55
2023-09-23T08:31:58.257Z,14.61
2023-09-23T08:34:25.973Z,14.61
2023-09-23T08:36:53.568Z,14.32
2023-09-23T08:39:20.514Z,14.21
2023-09-23T08:41:54.849Z,14.33
2023-09-23T08:44:23.570Z,14.64
2023-09-23T08:46:54.722Z,14.70
2023-09-23T08:49:23.078Z,14.46
2023-09-23T08:52:09.999Z,14.29
2023-09-23T08:54:37.261Z,14.39
2023-09-23T08:57:03.832Z,14.47
2023-09-23T08:59:32.066Z,14.35
2023-09-23T09:01:58.626Z,14.36
2023-09-23T09:04:25.420Z,14.43
2023-09-23T09:06:53.187Z,14.42
2023-09-23T09:09:20.340Z,14.59
2023-09-23T09:11:51.716Z,14.61
2023-09-23T09:14:18.632Z,14.66
2023-09-23T09:16:45.186Z,14.66
2023-09-23T09:19:12.059Z,14.75
2023-09-23T09:21:38.657Z,14.84
2023-09-23T09:24:08.186Z,14.89
2023-09-23T09:26:36.802Z,14.93
2023-09-23T09:29:04.674Z,14.88
2023-09-23T09:31:36.157Z,14.78
2023-09-23T09:34:06.439Z,14.75
2023-09-23T09:36:35.493Z,14.71
2023-09-23T09:39:05.732Z,14.64
2023-09-23T09:41:42.737Z,14.66
2023-09-23T09:44:09.912Z,14.73
2023-09-23T09:46:39.590Z,14.89
2023-09-23T09:49:07.715Z,15.08
2023-09-23T09:51:37.246Z,15.01
2023-09-23T09:54:05.353Z,15.02
2023-09-23T09:56:34.435Z,15.07
2023-09-23T09:59:02.235Z,15.24
2023-09-23T10:01:29.839Z,15.46
2023-09-23T10:03:56.524Z,15.52
2023-09-23T10:06:24.022Z,15.41
2023-09-23T10:08:50.755Z,15.27
2023-09-23T10:11:17.941Z,15.19
2023-09-23T10:13:44.903Z,15.14
2023-09-23T10:16:19.148Z,15.28
2023-09-23T10:18:55.204Z,15.33
2023-09-23T10:21:24.083Z,15.21
2023-09-23T10:23:56.820Z,15.21
2023-09-23T10:26:24.683Z,15.27
2023-09-23T10:29:02.734Z,15.25
2023-09-23T10:31:34.043Z,15.50
2023-09-23T10:34:11.364Z,15.71
2023-09-23T10:36:38.224Z,15.87
2023-09-23T10:39:08.740Z,15.69
2023-09-23T10:41:36.403Z,15.43
2023-09-23T10:44:06.133Z,15.49
2023-09-23T10:46:33.444Z,15.57
2023-09-23T10:49:01.077Z,15.66
2023-09-23T10:51:28.656Z,15.72
2023-09-23T10:53:57.144Z,15.73
2023-09-23T10:56:26.461Z,15.68
2023-09-23T10:58:53.506Z,15.62
2023-09-23T11:01:22.179Z,15.70
2023-09-23T11:03:49.148Z,15.90
2023-09-23T11:06:17.660Z,16.27
2023-09-23T11:08:45.274Z,16.33
2023-09-23T11:11:13.679Z,16.44
2023-09-23T11:13:41.221Z,16.44
2023-09-23T11:16:11.568Z,16.56
2023-09-23T11:18:39.378Z,16.81
2023-09-23T11:21:06.424Z,16.93
2023-09-23T11:23:34.931Z,17.07
2023-09-23T11:26:01.664Z,17.06
2023-09-23T11:28:28.746Z,16.86
2023-09-23T11:30:56.790Z,16.75
2023-09-23T11:33:23.572Z,16.60
2023-09-23T11:35:50.247Z,16.38
2023-09-23T11:38:18.271Z,16.17
2023-09-23T11:40:46.530Z,16.24
2023-09-23T11:43:13.206Z,16.43
2023-09-23T11:45:42.282Z,16.64
2023-09-23T11:48:09.759Z,16.96
2023-09-23T11:50:37.324Z,17.24
2023-09-23T11:53:04.285Z,17.17
2023-09-23T11:55:32.538Z,16.93
2023-09-23T11:58:01.452Z,16.68
2023-09-23T12:00:29.555Z,16.35
2023-09-23T12:02:56.129Z,16.15
2023-09-23T12:05:28.291Z,16.03
2023-09-23T12:07:55.109Z,16.19
2023-09-23T12:10:21.837Z,16.52
2023-09-23T12:12:48.313Z,16.69
2023-09-23T12:15:15.195Z,16.67
2023-09-23T12:17:41.788Z,16.91
2023-09-23T12:20:15.470Z,17.24
2023-09-23T12:22:42.499Z,17.37
2023-09-23T12:25:09.188Z,17.96
2023-09-23T12:27:36.373Z,18.18
2023-09-23T12:30:06.772Z,18.09
2023-09-23T12:32:34.374Z,17.79
2023-09-23T12:35:01.764Z,17.50
2023-09-23T12:37:28.704Z,17.21
2023-09-23T12:39:56.967Z,17.08
2023-09-23T12:42:31.718Z,16.90
2023-09-23T12:44:58.206Z,16.64
2023-09-23T12:47:24.926Z,16.26
2023-09-23T12:49:51.513Z,16.15
2023-09-23T12:52:18.083Z,16.14
2023-09-23T12:57:25.067Z,16.62
2023-09-23T12:59:51.636Z,17.08
2023-09-23T13:02:18.295Z,17.40
2023-09-23T13:04:44.842Z,17.54
2023-09-23T13:07:11.375Z,17.67
2023-09-23T13:09:37.910Z,17.60
2023-09-23T13:12:05.281Z,17.41
2023-09-23T13:14:33.159Z,17.26
2023-09-23T13:16:59.744Z,17.12
2023-09-23T13:19:26.276Z,16.98
2023-09-23T13:21:52.861Z,16.75
2023-09-23T13:24:20.345Z,16.49
2023-09-23T13:26:49.989Z,16.40
2023-09-23T13:29:18.252Z,16.40
2023-09-23T13:31:44.946Z,16.41
2023-09-23T13:34:11.496Z,16.48
2023-09-23T13:36:38.206Z,16.50
2023-09-23T13:39:04.770Z,16.43
2023-09-23T13:41:32.323Z,16.39
2023-09-23T13:43:59.081Z,16.32
2023-09-23T13:46:25.692Z,16.33
2023-09-23T13:48:52.437Z,16.40
2023-09-23T13:51:19.156Z,16.63
2023-09-23T13:53:45.963Z,16.65
2023-09-23T13:56:12.687Z,16.61
2023-09-23T13:58:39.287Z,16.51
2023-09-23T14:01:06.169Z,16.48
2023-09-23T14:03:35.318Z,16.46
2023-09-23T14:06:05.661Z,16.48
2023-09-23T14:08:32.534Z,16.52
2023-09-23T14:10:59.181Z,16.54
2023-09-23T14:13:25.900Z,16.53
2023-09-23T14:15:52.577Z,16.57
2023-09-23T14:18:19.146Z,16.56
2023-09-23T14:20:46.492Z,16.57
2023-09-23T14:23:13.933Z,16.60
2023-09-23T14:25:41.700Z,16.66
2023-09-23T14:28:08.267Z,16.72
2023-09-23T14:30:34.940Z,16.82
2023-09-23T14:33:03.132Z,16.85
2023-09-23T14:35:29.719Z,16.89
2023-09-23T14:37:56.401Z,16.81
2023-09-23T14:40:23.099Z,16.74
2023-09-23T14:42:49.837Z,16.70
2023-09-23T14:45:17.719Z,16.56
2023-09-23T14:47:49.150Z,16.40
2023-09-23T14:50:16.420Z,16.33
2023-09-23T14:52:43.101Z,16.30
2023-09-23T14:55:09.828Z,16.27
2023-09-23T14:57:36.678Z,16.34
2023-09-23T15:00:05.888Z,16.36
2023-09-23T15:02:33.192Z,16.37
2023-09-23T15:05:00.060Z,16.41
2023-09-23T15:07:26.632Z,16.58
2023-09-23T15:09:53.829Z,16.61
2023-09-23T15:12:20.391Z,16.63
2023-09-23T15:14:47.640Z,16.64
2023-09-23T15:17:14.425Z,16.62
2023-09-23T15:19:41.216Z,16.61
2023-09-23T15:22:07.809Z,16.52
2023-09-23T15:24:34.434Z,16.45
2023-09-23T15:27:01.171Z,16.42
2023-09-23T15:29:28.389Z,16.32
2023-09-23T15:31:55.021Z,16.26
2023-09-23T15:34:23.624Z,16.29
2023-09-23T15:36:50.563Z,16.32
2023-09-23T15:39:17.040Z,16.35
2023-09-23T15:41:44.322Z,16.40
2023-09-23T15:44:10.920Z,16.40
2023-09-23T15:46:37.538Z,16.43
2023-09-23T15:49:04.371Z,16.48
2023-09-23T15:51:31.554Z,16.49
2023-09-23T15:53:59.097Z,16.47
2023-09-23T15:56:26.154Z,16.44
2023-09-23T15:58:54.098Z,16.40
2023-09-23T16:01:21.361Z,16.40
2023-09-23T16:03:48.094Z,16.41
2023-09-23T16:06:14.733Z,16.46
2023-09-23T16:08:41.454Z,16.50
2023-09-23T16:11:09.179Z,16.44
2023-09-23T16:13:35.726Z,16.48
2023-09-23T16:16:02.410Z,16.52
2023-09-23T16:18:29.145Z,16.46
2023-09-23T16:20:56.087Z,16.42
2023-09-23T16:23:22.647Z,16.38
2023-09-23T16:25:49.293Z,16.35
2023-09-23T16:28:15.784Z,16.21
2023-09-23T16:30:43.191Z,16.14
2023-09-23T16:33:09.934Z,15.97
2023-09-23T16:35:36.860Z,15.75
2023-09-23T16:38:05.172Z,15.63
2023-09-23T16:40:31.959Z,15.62
2023-09-23T16:42:58.743Z,15.66
2023-09-23T16:45:25.260Z,15.65
2023-09-23T16:47:51.743Z,15.64
2023-09-23T16:50:18.594Z,15.62
2023-09-23T16:52:45.231Z,15.61
2023-09-23T16:55:11.843Z,15.61
2023-09-23T16:57:38.376Z,15.59
2023-09-23T17:00:05.571Z,15.53
2023-09-23T17:02:32.649Z,15.43
2023-09-23T17:05:00.150Z,15.33
2023-09-23T17:07:27.019Z,15.15
2023-09-23T17:09:54.103Z,15.01
2023-09-23T17:12:20.679Z,14.91
2023-09-23T17:14:47.473Z,14.87
2023-09-23T17:17:14.283Z,14.84
2023-09-23T17:19:41.518Z,14.81
2023-09-23T17:22:10.196Z,14.78
2023-09-23T17:24:37.136Z,14.74
2023-09-23T17:27:05.828Z,14.68
2023-09-23T17:29:36.012Z,14.66
2023-09-23T17:32:04.478Z,14.65
2023-09-23T17:34:37.944Z,14.64
2023-09-23T17:37:04.720Z,14.65
2023-09-23T17:39:32.273Z,14.68
2023-09-23T17:41:58.818Z,14.67
2023-09-23T17:44:26.506Z,14.68
2023-09-23T17:46:53.215Z,14.69
2023-09-23T17:49:19.768Z,14.70
2023-09-23T17:51:51.299Z,14.69
2023-09-23T17:54:17.883Z,14.68
2023-09-23T17:56:44.413Z,14.66
2023-09-23T17:59:10.958Z,14.56
2023-09-23T18:01:37.590Z,14.48
2023-09-23T18:04:04.513Z,14.41
2023-09-23T18:06:31.737Z,14.36
2023-09-23T18:08:58.370Z,14.30
2023-09-23T18:11:25.176Z,14.25
2023-09-23T18:13:55.872Z,14.20
2023-09-23T18:16:22.737Z,14.15
2023-09-23T18:18:49.463Z,14.09
2023-09-23T18:21:17.395Z,14.01
2023-09-23T18:23:45.377Z,13.96
2023-09-23T18:26:13.552Z,13.89
2023-09-23T18:28:41.102Z,13.82
2023-09-23T18:31:10.307Z,13.81
2023-09-23T18:33:37.121Z,13.84
2023-09-23T18:36:04.119Z,13.86
2023-09-23T18:38:30.700Z,13.89
2023-09-23T18:40:57.570Z,13.90
2023-09-23T18:43:24.398Z,13.85
2023-09-23T18:45:51.655Z,13.82
2023-09-23T18:48:26.884Z,13.85
2023-09-23T18:50:54.787Z,13.90
2023-09-23T18:53:22.024Z,13.96
2023-09-23T18:55:48.958Z,14.03
2023-09-23T18:58:15.799Z,14.05
2023-09-23T19:00:44.036Z,14.05
2023-09-23T19:03:10.973Z,14.04
2023-09-23T19:05:39.153Z,14.05
2023-09-23T19:08:06.645Z,14.04
2023-09-23T19:10:33.577Z,14.00
2023-09-23T19:13:00.221Z,13.94
2023-09-23T19:15:26.777Z,13.90
2023-09-23T19:17:53.836Z,13.91
2023-09-23T19:20:20.386Z,13.87
2023-09-23T19:22:48.242Z,13.84
2023-09-23T19:25:15.950Z,13.78
2023-09-23T19:27:44.027Z,13.71
2023-09-23T19:30:16.568Z,13.62
2023-09-23T19:32:43.534Z,13.54
2023-09-23T19:35:10.913Z,13.48
2023-09-23T19:37:38.987Z,13.45
2023-09-23T19:40:06.829Z,13.41
2023-09-23T19:42:34.453Z,13.37
2023-09-23T19:45:04.431Z,13.31
2023-09-23T19:47:32.260Z,13.26
2023-09-23T19:50:00.569Z,13.21
2023-09-23T19:52:30.534Z,13.18
2023-09-23T19:54:57.316Z,13.18
2023-09-23T19:57:23.807Z,13.16
2023-09-23T19:59:50.339Z,13.08
2023-09-23T20:02:17.001Z,13.04
2023-09-23T20:04:46.140Z,12.99
2023-09-23T20:07:17.454Z,12.93
2023-09-23T20:09:44.091Z,12.89
2023-09-23T20:12:17.627Z,12.84
2023-09-23T20:14:44.407Z,12.80
2023-09-23T20:17:12.514Z,12.77
2023-09-23T20:19:39.373Z,12.77
2023-09-23T20:22:06.991Z,12.78
2023-09-23T20:24:34.537Z,12.76
2023-09-23T20:27:03.286Z,12.67
2023-09-23T20:29:29.994Z,12.62
2023-09-23T20:31:56.982Z,12.59
2023-09-23T20:34:25.155Z,12.56
2023-09-23T20:36:51.674Z,12.55
2023-09-23T20:39:21.220Z,12.54
2023-09-23T20:41:48.990Z,12.53
2023-09-23T20:44:16.337Z,12.54
2023-09-23T20:46:42.847Z,12.58
2023-09-23T20:49:09.519Z,12.60
2023-09-23T20:51:36.166Z,12.65
2023-09-23T20:54:02.974Z,12.67
2023-09-23T20:56:29.499Z,12.67
2023-09-23T20:58:57.769Z,12.71
2023-09-23T21:01:26.758Z,12.71
2023-09-23T21:03:54.030Z,12.68
2023-09-23T21:06:20.902Z,12.66
2023-09-23T21:08:49.245Z,12.60
2023-09-23T21:11:16.276Z,12.53
2023-09-23T21:13:43.019Z,12.50
2023-09-23T21:16:10.637Z,12.47
2023-09-23T21:18:37.198Z,12.42
2023-09-23T21:21:04.422Z,12.37
2023-09-23T21:23:31.028Z,12.30
2023-09-23T21:25:57.625Z,12.23
2023-09-23T21:28:24.332Z,12.20
2023-09-23T21:30:52.341Z,12.17
2023-09-23T21:33:19.211Z,12.16
2023-09-23T21:35:45.882Z,12.12
2023-09-23T21:38:12.521Z,12.06
2023-09-23T21:40:41.103Z,12.01
2023-09-23T21:43:08.968Z,11.95
2023-09-23T21:45:35.590Z,11.90
2023-09-23T21:48:02.630Z,11.83
2023-09-23T21:50:30.004Z,11.78
2023-09-23T21:52:56.652Z,11.77
2023-09-23T21:55:23.160Z,11.76
2023-09-23T21:57:49.897Z,11.74
2023-09-23T22:00:29.042Z,11.70
2023-09-23T22:03:00.511Z,11.67
2023-09-23T22:05:29.195Z,11.64
2023-09-23T22:07:58.771Z,11.60
2023-09-23T22:10:27.615Z,11.57
2023-09-23T22:12:54.682Z,11.54
2023-09-23T22:15:22.005Z,11.49
2023-09-23T22:17:49.122Z,11.46
2023-09-23T22:20:18.642Z,11.46
2023-09-23T22:22:46.086Z,11.44
2023-09-23T22:25:16.381Z,11.41
2023-09-23T22:27:43.659Z,11.36
2023-09-23T22:30:18.786Z,11.33
2023-09-23T22:32:46.860Z,11.29
2023-09-23T22:35:14.347Z,11.31
2023-09-23T22:37:44.015Z,11.28
2023-09-23T22:40:15.264Z,11.26
2023-09-23T22:42:42.644Z,11.25
2023-09-23T22:45:20.420Z,11.20
2023-09-23T22:47:51.078Z,11.17
2023-09-23T22:50:19.788Z,11.13
2023-09-23T22:52:46.373Z,11.09
2023-09-23T22:55:14.490Z,11.08
2023-09-23T22:57:52.120Z,11.05
2023-09-23T23:00:27.132Z,11.01
2023-09-23T23:02:55.989Z,10.98
2023-09-23T23:05:27.687Z,10.95
2023-09-23T23:07:57.157Z,10.92
2023-09-23T23:10:23.676Z,10.90
2023-09-23T23:12:50.398Z,10.88
2023-09-23T23:15:18.041Z,10.84
2023-09-23T23:17:47.425Z,10.79
2023-09-23T23:20:25.292Z,10.79
2023-09-23T23:22:56.446Z,10.77
2023-09-23T23:25:27.094Z,10.76
2023-09-23T23:27:53.816Z,10.72
2023-09-23T23:30:21.668Z,10.73
2023-09-23T23:32:49.694Z,10.71
2023-09-23T23:35:26.412Z,10.67
2023-09-23T23:37:52.920Z,10.67
2023-09-23T23:40:24.245Z,10.63
2023-09-23T23:42:51.701Z,10.60
2023-09-23T23:45:20.708Z,10.55
2023-09-23T23:47:48.078Z,10.50
2023-09-23T23:50:17.561Z,10.49
2023-09-23T23:52:47.155Z,10.47
2023-09-23T23:55:13.893Z,10.39
2023-09-23T23:57:40.850Z,10.36
